createdAt,value
2017-12-17T00:00:01.494Z,2.02
2017-12-17T00:00:05.642Z,2.04
2017-12-17T00:00:09.781Z,2.02
2017-12-17T00:00:14.143Z,2.05
2017-12-17T00:00:18.396Z,2.05
2017-12-17T00:00:22.435Z,2.02
2017-12-17T00:00:26.445Z,2.02
2017-12-17T00:00:30.487Z,2.05
2017-12-17T00:00:34.739Z,2.05
2017-12-17T00:00:38.873Z,2.05
2017-12-17T00:00:43.219Z,2.09
2017-12-17T00:00:47.457Z,2.11
2017-12-17T00:00:51.698Z,2.02
2017-12-17T00:00:55.868Z,2.02
2017-12-17T00:01:00.119Z,2.05
2017-12-17T00:01:04.803Z,2.05
2017-12-17T00:01:08.929Z,2.01
2017-12-17T00:01:13.284Z,2.05
2017-12-17T00:01:17.636Z,2.02
2017-12-17T00:01:21.659Z,2.02
2017-12-17T00:01:25.896Z,2.07
2017-12-17T00:01:29.993Z,2.05
2017-12-17T00:01:34.024Z,2.05
2017-12-17T00:01:38.276Z,2.02
2017-12-17T00:01:42.529Z,2.07
2017-12-17T00:01:46.874Z,2.05
2017-12-17T00:01:50.996Z,2.11
2017-12-17T00:01:55.352Z,2.07
2017-12-17T00:01:59.716Z,2.08
2017-12-17T00:02:03.856Z,2.08
2017-12-17T00:02:07.889Z,2
2017-12-17T00:02:12.014Z,2.05
2017-12-17T00:02:16.262Z,2.04
2017-12-17T00:02:20.604Z,2.04
2017-12-17T00:02:24.967Z,2.05
2017-12-17T00:02:29.110Z,2.07
2017-12-17T00:02:33.029Z,2.02
2017-12-17T00:02:37.167Z,2.02
2017-12-17T00:02:41.518Z,2.02
2017-12-17T00:02:45.770Z,2.05
2017-12-17T00:02:50.021Z,2.05
2017-12-17T00:02:54.311Z,2.04
2017-12-17T00:02:58.504Z,2.07
2017-12-17T00:03:02.746Z,2.07
2017-12-17T00:03:06.881Z,2.05
2017-12-17T00:03:11.119Z,2.05
2017-12-17T00:03:15.351Z,2.08
2017-12-17T00:03:19.597Z,2.11
2017-12-17T00:03:23.729Z,2.08
2017-12-17T00:03:27.962Z,2.02
2017-12-17T00:03:32.186Z,2.05
2017-12-17T00:03:36.215Z,2.05
2017-12-17T00:03:40.566Z,2.02
2017-12-17T00:03:44.705Z,2.07
2017-12-17T00:03:48.855Z,2.02
2017-12-17T00:03:52.982Z,2.08
2017-12-17T00:03:57.127Z,2.11
2017-12-17T00:04:01.277Z,2.05
2017-12-17T00:04:05.513Z,2.05
2017-12-17T00:04:09.863Z,2.07
2017-12-17T00:04:14.113Z,2.07
2017-12-17T00:04:18.132Z,2.02
2017-12-17T00:04:22.248Z,2.05
2017-12-17T00:04:26.493Z,2.04
2017-12-17T00:04:30.648Z,2.07
2017-12-17T00:04:34.767Z,2.11
2017-12-17T00:04:39.018Z,2.08
2017-12-17T00:04:43.369Z,2.07
2017-12-17T00:04:47.613Z,2.02
2017-12-17T00:04:51.862Z,2
2017-12-17T00:04:56.108Z,2.08
2017-12-17T00:05:00.363Z,2.05
2017-12-17T00:05:04.807Z,2.02
2017-12-17T00:05:09.045Z,2.07
2017-12-17T00:05:13.289Z,2.05
2017-12-17T00:05:17.432Z,2.07
2017-12-17T00:05:21.779Z,2.02
2017-12-17T00:05:26.134Z,2.02
2017-12-17T00:05:30.391Z,2.07
2017-12-17T00:05:34.234Z,2.02
2017-12-17T00:05:38.501Z,2.04
2017-12-17T00:05:42.850Z,2.05
2017-12-17T00:05:46.990Z,2
2017-12-17T00:05:51.231Z,2.02
2017-12-17T00:05:55.466Z,2.05
2017-12-17T00:05:59.705Z,2.02
2017-12-17T00:06:04.056Z,2.02
2017-12-17T00:06:08.196Z,2.07
2017-12-17T00:06:12.338Z,2.07
2017-12-17T00:06:16.692Z,2.01
2017-12-17T00:06:20.926Z,2.07
2017-12-17T00:06:25.078Z,2.04
2017-12-17T00:06:29.421Z,2.02
2017-12-17T00:06:33.676Z,2
2017-12-17T00:06:37.806Z,2.02
2017-12-17T00:06:41.931Z,2.01
2017-12-17T00:06:46.284Z,1.92
2017-12-17T00:06:50.546Z,2.01
2017-12-17T00:06:54.702Z,2.05
2017-12-17T00:06:58.962Z,2.02
2017-12-17T00:07:02.978Z,2.04
2017-12-17T00:07:07.320Z,2.04
2017-12-17T00:07:11.456Z,2.04
2017-12-17T00:07:15.602Z,2.01
2017-12-17T00:07:19.741Z,1.93
2017-12-17T00:07:23.764Z,2.02
2017-12-17T00:07:28.006Z,2.01
2017-12-17T00:07:32.296Z,1.89
2017-12-17T00:07:36.653Z,2
2017-12-17T00:07:40.665Z,2.05
2017-12-17T00:07:45.005Z,2.02
2017-12-17T00:07:49.355Z,1.92
2017-12-17T00:07:53.499Z,2.04
2017-12-17T00:07:57.856Z,2.01
2017-12-17T00:08:01.991Z,2.08
2017-12-17T00:08:06.125Z,1.93
2017-12-17T00:08:10.381Z,2.04
2017-12-17T00:08:14.621Z,1.98
2017-12-17T00:08:18.762Z,2.04
2017-12-17T00:08:23.093Z,2
2017-12-17T00:08:27.140Z,2.07
2017-12-17T00:08:31.490Z,2.02
2017-12-17T00:08:35.829Z,2.01
2017-12-17T00:08:40.079Z,2.11
2017-12-17T00:08:44.422Z,2.02
2017-12-17T00:08:48.774Z,2.08
2017-12-17T00:08:53.122Z,2.02
2017-12-17T00:08:57.464Z,1.98
2017-12-17T00:09:02.010Z,2
2017-12-17T00:09:06.137Z,2
2017-12-17T00:09:10.275Z,2.02
2017-12-17T00:09:14.531Z,2.08
2017-12-17T00:09:18.770Z,2
2017-12-17T00:09:23.030Z,2.07
2017-12-17T00:09:27.279Z,2.01
2017-12-17T00:09:31.525Z,2.02
2017-12-17T00:09:35.782Z,2
2017-12-17T00:09:39.822Z,2.02
2017-12-17T00:09:44.054Z,2.01
2017-12-17T00:09:48.417Z,2.01
2017-12-17T00:09:52.708Z,2
2017-12-17T00:09:57.311Z,1.98
2017-12-17T00:10:01.566Z,1.93
2017-12-17T00:10:05.827Z,1.95
2017-12-17T00:10:10.073Z,2
2017-12-17T00:10:14.312Z,2.07
2017-12-17T00:10:18.560Z,1.92
2017-12-17T00:10:22.794Z,2.07
2017-12-17T00:10:27.172Z,1.9
2017-12-17T00:10:31.210Z,1.95
2017-12-17T00:10:35.223Z,2.05
2017-12-17T00:10:39.372Z,1.88
2017-12-17T00:10:43.523Z,2.04
2017-12-17T00:10:47.650Z,1.93
2017-12-17T00:10:51.993Z,1.93
2017-12-17T00:10:56.296Z,2.05
2017-12-17T00:11:00.644Z,1.92
2017-12-17T00:11:04.887Z,1.95
2017-12-17T00:11:08.925Z,1.93
2017-12-17T00:11:13.154Z,1.95
2017-12-17T00:11:17.185Z,1.93
2017-12-17T00:11:21.228Z,2.07
2017-12-17T00:11:25.263Z,1.98
2017-12-17T00:11:29.596Z,1.93
2017-12-17T00:11:33.848Z,1.92
2017-12-17T00:11:38.196Z,2.04
2017-12-17T00:11:42.442Z,1.93
2017-12-17T00:11:46.678Z,1.92
2017-12-17T00:11:51.031Z,1.89
2017-12-17T00:11:55.297Z,1.9
2017-12-17T00:11:59.641Z,2.04
2017-12-17T00:12:03.878Z,1.88
2017-12-17T00:12:07.902Z,1.92
2017-12-17T00:12:12.186Z,2.07
2017-12-17T00:12:16.315Z,1.9
2017-12-17T00:12:20.663Z,1.92
2017-12-17T00:12:24.906Z,2.05
2017-12-17T00:12:29.243Z,1.9
2017-12-17T00:12:33.487Z,1.9
2017-12-17T00:12:37.629Z,1.98
2017-12-17T00:12:41.882Z,1.98
2017-12-17T00:12:46.118Z,1.88
2017-12-17T00:12:50.251Z,1.98
2017-12-17T00:12:54.386Z,1.92
2017-12-17T00:12:58.728Z,1.92
2017-12-17T00:13:02.968Z,2.04
2017-12-17T00:13:07.006Z,1.93
2017-12-17T00:13:11.349Z,1.92
2017-12-17T00:13:15.592Z,2
2017-12-17T00:13:19.943Z,1.93
2017-12-17T00:13:24.195Z,1.98
2017-12-17T00:13:28.433Z,2
2017-12-17T00:13:32.679Z,1.92
2017-12-17T00:13:36.924Z,1.98
2017-12-17T00:13:41.290Z,1.89
2017-12-17T00:13:45.325Z,1.93
2017-12-17T00:13:49.669Z,1.9
2017-12-17T00:13:53.702Z,1.92
2017-12-17T00:13:57.953Z,1.86
2017-12-17T00:14:02.418Z,2
2017-12-17T00:14:06.683Z,1.98
2017-12-17T00:14:10.712Z,1.95
2017-12-17T00:14:14.957Z,1.92
2017-12-17T00:14:19.197Z,2.01
2017-12-17T00:14:23.435Z,1.85
2017-12-17T00:14:27.684Z,1.93
2017-12-17T00:14:31.926Z,1.89
2017-12-17T00:14:36.071Z,1.85
2017-12-17T00:14:40.314Z,1.86
2017-12-17T00:14:44.669Z,1.93
2017-12-17T00:14:48.803Z,1.9
2017-12-17T00:14:53.059Z,1.9
2017-12-17T00:14:57.413Z,2.01
2017-12-17T00:15:01.644Z,1.9
2017-12-17T00:15:05.762Z,1.83
2017-12-17T00:15:09.900Z,1.83
2017-12-17T00:15:14.157Z,1.81
2017-12-17T00:15:18.411Z,1.9
2017-12-17T00:15:22.557Z,1.93
2017-12-17T00:15:26.896Z,1.89
2017-12-17T00:15:30.927Z,1.9
2017-12-17T00:15:35.054Z,1.81
2017-12-17T00:15:39.409Z,1.89
2017-12-17T00:15:43.756Z,1.92
2017-12-17T00:15:47.902Z,1.89
2017-12-17T00:15:52.157Z,1.81
2017-12-17T00:15:56.408Z,1.92
2017-12-17T00:16:00.757Z,1.9
2017-12-17T00:16:04.798Z,1.88
2017-12-17T00:16:09.131Z,1.82
2017-12-17T00:16:13.354Z,1.89
2017-12-17T00:16:17.704Z,1.89
2017-12-17T00:16:21.833Z,1.79
2017-12-17T00:16:26.191Z,1.89
2017-12-17T00:16:30.230Z,1.81
2017-12-17T00:16:34.458Z,1.81
2017-12-17T00:16:38.633Z,2
2017-12-17T00:16:42.992Z,1.9
2017-12-17T00:16:47.020Z,1.86
2017-12-17T00:16:51.175Z,1.89
2017-12-17T00:16:55.295Z,1.82
2017-12-17T00:16:59.427Z,1.88
2017-12-17T00:17:03.770Z,1.89
2017-12-17T00:17:08.014Z,1.85
2017-12-17T00:17:11.931Z,1.81
2017-12-17T00:17:16.174Z,1.89
2017-12-17T00:17:20.303Z,1.85
2017-12-17T00:17:24.550Z,1.82
2017-12-17T00:17:28.917Z,1.83
2017-12-17T00:17:32.938Z,1.89
2017-12-17T00:17:37.311Z,1.88
2017-12-17T00:17:41.449Z,1.83
2017-12-17T00:17:45.803Z,1.92
2017-12-17T00:17:49.839Z,1.85
2017-12-17T00:17:53.971Z,1.85
2017-12-17T00:17:58.334Z,1.85
2017-12-17T00:18:02.674Z,1.95
2017-12-17T00:18:06.910Z,1.83
2017-12-17T00:18:11.038Z,1.89
2017-12-17T00:18:15.290Z,1.88
2017-12-17T00:18:19.532Z,1.82
2017-12-17T00:18:23.782Z,1.82
2017-12-17T00:18:28.028Z,1.81
2017-12-17T00:18:32.381Z,1.83
2017-12-17T00:18:36.632Z,1.83
2017-12-17T00:18:40.981Z,1.85
2017-12-17T00:18:45.221Z,1.9
2017-12-17T00:18:49.452Z,1.79
2017-12-17T00:18:53.681Z,1.77
2017-12-17T00:18:57.701Z,1.85
2017-12-17T00:19:02.302Z,1.81
2017-12-17T00:19:06.550Z,1.89
2017-12-17T00:19:10.687Z,1.86
2017-12-17T00:19:14.910Z,1.81
2017-12-17T00:19:19.119Z,1.81
2017-12-17T00:19:23.461Z,1.93
2017-12-17T00:19:27.607Z,1.82
2017-12-17T00:19:31.980Z,1.9
2017-12-17T00:19:36.222Z,1.89
2017-12-17T00:19:40.463Z,1.85
2017-12-17T00:19:44.820Z,1.85
2017-12-17T00:19:49.051Z,1.81
2017-12-17T00:19:53.077Z,1.93
2017-12-17T00:19:57.137Z,1.85
2017-12-17T00:20:01.166Z,1.85
2017-12-17T00:20:05.472Z,1.95
2017-12-17T00:20:09.619Z,1.85
2017-12-17T00:20:13.657Z,1.82
2017-12-17T00:20:17.793Z,1.82
2017-12-17T00:20:21.931Z,1.82
2017-12-17T00:20:25.960Z,1.86
2017-12-17T00:20:30.354Z,1.82
2017-12-17T00:20:34.593Z,1.81
2017-12-17T00:20:38.950Z,1.81
2017-12-17T00:20:43.206Z,1.77
2017-12-17T00:20:47.428Z,1.83
2017-12-17T00:20:51.670Z,1.85
2017-12-17T00:20:55.602Z,1.82
2017-12-17T00:20:59.732Z,1.79
2017-12-17T00:21:04.180Z,1.82
2017-12-17T00:21:08.303Z,1.9
2017-12-17T00:21:12.554Z,1.85
2017-12-17T00:21:16.789Z,1.82
2017-12-17T00:21:21.117Z,1.82
2017-12-17T00:21:25.356Z,1.86
2017-12-17T00:21:29.744Z,1.83
2017-12-17T00:21:34.084Z,1.86
2017-12-17T00:21:38.422Z,1.81
2017-12-17T00:21:42.661Z,1.79
2017-12-17T00:21:46.895Z,1.82
2017-12-17T00:21:50.917Z,1.75
2017-12-17T00:21:54.955Z,1.75
2017-12-17T00:21:59.087Z,1.82
2017-12-17T00:22:03.445Z,1.83
2017-12-17T00:22:07.477Z,1.82
2017-12-17T00:22:11.714Z,1.85
2017-12-17T00:22:16.060Z,1.82
2017-12-17T00:22:20.329Z,1.85
2017-12-17T00:22:24.472Z,1.83
2017-12-17T00:22:28.713Z,1.85
2017-12-17T00:22:32.848Z,1.9
2017-12-17T00:22:36.978Z,1.83
2017-12-17T00:22:41.235Z,1.74
2017-12-17T00:22:45.471Z,1.83
2017-12-17T00:22:49.805Z,1.85
2017-12-17T00:22:53.618Z,1.85
2017-12-17T00:22:57.537Z,1.82
2017-12-17T00:23:01.880Z,1.82
2017-12-17T00:23:05.813Z,1.88
2017-12-17T00:23:10.155Z,1.85
2017-12-17T00:23:14.178Z,1.79
2017-12-17T00:23:18.523Z,1.79
2017-12-17T00:23:22.763Z,1.77
2017-12-17T00:23:26.691Z,1.89
2017-12-17T00:23:30.925Z,1.79
2017-12-17T00:23:35.181Z,1.82
2017-12-17T00:23:39.417Z,1.79
2017-12-17T00:23:43.775Z,1.81
2017-12-17T00:23:48.002Z,1.77
2017-12-17T00:23:52.236Z,1.85
2017-12-17T00:23:56.493Z,1.86
2017-12-17T00:24:00.728Z,1.89
2017-12-17T00:24:05.125Z,1.75
2017-12-17T00:24:09.379Z,1.77
2017-12-17T00:24:13.625Z,1.75
2017-12-17T00:24:17.752Z,1.79
2017-12-17T00:24:22.098Z,1.74
2017-12-17T00:24:26.339Z,1.77
2017-12-17T00:24:30.578Z,1.82
2017-12-17T00:24:34.716Z,1.75
2017-12-17T00:24:39.064Z,1.85
2017-12-17T00:24:43.296Z,1.79
2017-12-17T00:24:47.648Z,1.86
2017-12-17T00:24:51.775Z,1.85
2017-12-17T00:24:55.935Z,1.83
2017-12-17T00:25:00.171Z,1.81
2017-12-17T00:25:04.299Z,1.75
2017-12-17T00:25:08.670Z,1.86
2017-12-17T00:25:13.019Z,1.86
2017-12-17T00:25:17.160Z,1.75
2017-12-17T00:25:21.498Z,1.85
2017-12-17T00:25:25.636Z,1.81
2017-12-17T00:25:30.002Z,1.79
2017-12-17T00:25:34.246Z,1.72
2017-12-17T00:25:38.581Z,1.77
2017-12-17T00:25:42.813Z,1.83
2017-12-17T00:25:47.179Z,1.83
2017-12-17T00:25:51.411Z,1.77
2017-12-17T00:25:55.610Z,1.75
2017-12-17T00:25:59.865Z,1.85
2017-12-17T00:26:04.157Z,1.85
2017-12-17T00:26:08.391Z,1.79
2017-12-17T00:26:12.814Z,1.81
2017-12-17T00:26:17.067Z,1.83
2017-12-17T00:26:21.290Z,1.86
2017-12-17T00:26:25.407Z,1.85
2017-12-17T00:26:29.597Z,1.83
2017-12-17T00:26:33.930Z,1.77
2017-12-17T00:26:38.077Z,1.82
2017-12-17T00:26:42.313Z,1.71
2017-12-17T00:26:46.676Z,1.75
2017-12-17T00:26:50.920Z,1.81
2017-12-17T00:26:55.181Z,1.79
2017-12-17T00:26:59.201Z,1.74
2017-12-17T00:27:03.686Z,1.77
2017-12-17T00:27:07.819Z,1.85
2017-12-17T00:27:11.956Z,1.79
2017-12-17T00:27:15.870Z,1.83
2017-12-17T00:27:20.022Z,1.85
2017-12-17T00:27:24.379Z,1.77
2017-12-17T00:27:28.473Z,1.79
2017-12-17T00:27:32.711Z,1.81
2017-12-17T00:27:36.957Z,1.77
2017-12-17T00:27:41.099Z,1.77
2017-12-17T00:27:45.355Z,1.85
2017-12-17T00:27:49.487Z,1.86
2017-12-17T00:27:53.620Z,1.74
2017-12-17T00:27:57.750Z,1.79
2017-12-17T00:28:02.107Z,1.75
2017-12-17T00:28:06.457Z,1.75
2017-12-17T00:28:10.712Z,1.79
2017-12-17T00:28:15.001Z,1.75
2017-12-17T00:28:19.133Z,1.72
2017-12-17T00:28:23.156Z,1.81
2017-12-17T00:28:27.519Z,1.79
2017-12-17T00:28:31.765Z,1.77
2017-12-17T00:28:36.105Z,1.85
2017-12-17T00:28:40.213Z,1.82
2017-12-17T00:28:44.553Z,1.85
2017-12-17T00:28:48.781Z,1.74
2017-12-17T00:28:52.818Z,1.79
2017-12-17T00:28:56.940Z,1.82
2017-12-17T00:29:01.168Z,1.85
2017-12-17T00:29:05.524Z,1.81
2017-12-17T00:29:09.440Z,1.82
2017-12-17T00:29:13.470Z,1.85
2017-12-17T00:29:17.497Z,1.81
2017-12-17T00:29:21.838Z,1.83
2017-12-17T00:29:26.151Z,1.71
2017-12-17T00:29:30.404Z,1.79
2017-12-17T00:29:34.657Z,1.82
2017-12-17T00:29:38.799Z,1.75
2017-12-17T00:29:43.138Z,1.81
2017-12-17T00:29:47.487Z,1.77
2017-12-17T00:29:51.743Z,1.83
2017-12-17T00:29:55.972Z,1.85
2017-12-17T00:30:00.105Z,1.77
2017-12-17T00:30:04.362Z,1.82
2017-12-17T00:30:08.761Z,1.75
2017-12-17T00:30:13.001Z,1.85
2017-12-17T00:30:17.361Z,1.81
2017-12-17T00:30:21.709Z,1.75
2017-12-17T00:30:25.947Z,1.75
2017-12-17T00:30:29.977Z,1.79
2017-12-17T00:30:33.991Z,1.82
2017-12-17T00:30:38.240Z,1.82
2017-12-17T00:30:42.492Z,1.83
2017-12-17T00:30:46.835Z,1.75
2017-12-17T00:30:51.068Z,1.86
2017-12-17T00:30:55.415Z,1.74
2017-12-17T00:30:59.648Z,1.86
2017-12-17T00:31:04.159Z,1.82
2017-12-17T00:31:08.405Z,1.85
2017-12-17T00:31:12.422Z,1.83
2017-12-17T00:31:16.669Z,1.82
2017-12-17T00:31:20.903Z,1.81
2017-12-17T00:31:25.047Z,1.85
2017-12-17T00:31:29.191Z,1.82
2017-12-17T00:31:33.433Z,1.82
2017-12-17T00:31:37.465Z,1.85
2017-12-17T00:31:41.684Z,1.85
2017-12-17T00:31:46.029Z,1.81
2017-12-17T00:31:50.176Z,1.82
2017-12-17T00:31:54.529Z,1.74
2017-12-17T00:31:58.659Z,1.81
2017-12-17T00:32:02.988Z,1.85
2017-12-17T00:32:07.361Z,1.81
2017-12-17T00:32:11.394Z,1.77
2017-12-17T00:32:15.745Z,1.75
2017-12-17T00:32:19.888Z,1.85
2017-12-17T00:32:24.235Z,1.81
2017-12-17T00:32:28.460Z,1.83
2017-12-17T00:32:32.590Z,1.79
2017-12-17T00:32:36.721Z,1.77
2017-12-17T00:32:40.854Z,1.81
2017-12-17T00:33:17.209Z,1.88
2017-12-17T00:33:21.451Z,1.83
2017-12-17T00:33:25.682Z,1.82
2017-12-17T00:33:29.823Z,1.77
2017-12-17T00:33:34.062Z,1.83
2017-12-17T00:33:38.098Z,1.88
2017-12-17T00:33:42.345Z,1.79
2017-12-17T00:33:46.490Z,1.79
2017-12-17T00:33:50.799Z,1.79
2017-12-17T00:33:55.140Z,1.82
2017-12-17T00:33:59.277Z,1.79
2017-12-17T00:34:03.759Z,1.83
2017-12-17T00:34:07.797Z,1.88
2017-12-17T00:34:12.036Z,1.83
2017-12-17T00:34:15.948Z,1.81
2017-12-17T00:34:20.089Z,1.82
2017-12-17T00:34:24.446Z,1.85
2017-12-17T00:34:28.693Z,1.79
2017-12-17T00:34:33.057Z,1.75
2017-12-17T00:34:37.403Z,1.82
2017-12-17T00:34:41.659Z,1.71
2017-12-17T00:34:46.014Z,1.86
2017-12-17T00:34:50.254Z,1.88
2017-12-17T00:34:54.583Z,1.83
2017-12-17T00:34:58.787Z,1.86
2017-12-17T00:35:03.445Z,1.77
2017-12-17T00:35:07.684Z,1.81
2017-12-17T00:35:11.631Z,1.81
2017-12-17T00:35:15.890Z,1.77
2017-12-17T00:35:19.911Z,1.75
2017-12-17T00:35:24.253Z,1.83
2017-12-17T00:35:28.490Z,1.77
2017-12-17T00:35:32.735Z,1.81
2017-12-17T00:35:36.970Z,1.81
2017-12-17T00:35:41.124Z,1.88
2017-12-17T00:35:45.462Z,1.88
2017-12-17T00:35:49.815Z,1.82
2017-12-17T00:35:54.151Z,1.83
2017-12-17T00:35:58.188Z,1.79
2017-12-17T00:36:02.215Z,1.82
2017-12-17T00:36:06.357Z,1.88
2017-12-17T00:36:10.398Z,1.83
2017-12-17T00:36:14.748Z,1.74
2017-12-17T00:36:18.899Z,1.86
2017-12-17T00:36:23.242Z,1.81
2017-12-17T00:36:27.384Z,1.81
2017-12-17T00:36:31.729Z,1.83
2017-12-17T00:36:35.954Z,1.77
2017-12-17T00:36:40.202Z,1.88
2017-12-17T00:36:44.604Z,1.83
2017-12-17T00:36:48.962Z,1.79
2017-12-17T00:36:53.315Z,1.82
2017-12-17T00:36:57.459Z,1.79
2017-12-17T00:37:01.742Z,1.81
2017-12-17T00:37:05.873Z,1.79
2017-12-17T00:37:09.899Z,1.86
2017-12-17T00:37:14.139Z,1.85
2017-12-17T00:37:18.397Z,1.85
2017-12-17T00:37:22.625Z,1.83
2017-12-17T00:37:26.851Z,1.79
2017-12-17T00:37:31.226Z,1.82
2017-12-17T00:37:35.672Z,1.83
2017-12-17T00:37:40.014Z,1.89
2017-12-17T00:37:44.431Z,1.83
2017-12-17T00:37:48.674Z,1.79
2017-12-17T00:37:52.801Z,1.83
2017-12-17T00:37:56.939Z,1.82
2017-12-17T00:38:01.178Z,1.83
2017-12-17T00:38:05.411Z,1.81
2017-12-17T00:38:09.549Z,1.88
2017-12-17T00:38:13.690Z,1.82
2017-12-17T00:38:17.813Z,1.88
2017-12-17T00:38:21.966Z,1.86
2017-12-17T00:38:26.067Z,1.82
2017-12-17T00:38:30.316Z,1.83
2017-12-17T00:38:34.573Z,1.82
2017-12-17T00:38:38.812Z,1.86
2017-12-17T00:38:43.175Z,1.85
2017-12-17T00:38:47.417Z,1.83
2017-12-17T00:38:51.749Z,1.89
2017-12-17T00:38:55.930Z,1.86
2017-12-17T00:39:00.057Z,1.82
2017-12-17T00:39:04.302Z,1.85
2017-12-17T00:39:08.223Z,1.83
2017-12-17T00:39:12.253Z,1.79
2017-12-17T00:39:16.376Z,1.88
2017-12-17T00:39:20.496Z,1.83
2017-12-17T00:39:24.638Z,1.86
2017-12-17T00:39:28.988Z,1.85
2017-12-17T00:39:33.220Z,1.79
2017-12-17T00:39:37.572Z,1.86
2017-12-17T00:39:41.709Z,1.88
2017-12-17T00:39:46.048Z,1.82
2017-12-17T00:39:50.292Z,1.79
2017-12-17T00:39:54.321Z,1.79
2017-12-17T00:39:58.558Z,1.79
2017-12-17T00:40:02.850Z,1.86
2017-12-17T00:40:07.095Z,1.79
2017-12-17T00:40:11.127Z,1.82
2017-12-17T00:40:15.161Z,1.82
2017-12-17T00:40:19.189Z,1.85
2017-12-17T00:40:23.327Z,1.86
2017-12-17T00:40:27.481Z,1.74
2017-12-17T00:40:31.832Z,1.89
2017-12-17T00:40:36.175Z,1.85
2017-12-17T00:40:40.293Z,1.88
2017-12-17T00:40:44.635Z,1.83
2017-12-17T00:40:48.890Z,1.86
2017-12-17T00:40:53.122Z,1.81
2017-12-17T00:40:57.353Z,1.82
2017-12-17T00:41:01.776Z,1.83
2017-12-17T00:41:05.910Z,1.86
2017-12-17T00:41:10.162Z,1.79
2017-12-17T00:41:14.401Z,1.82
2017-12-17T00:41:18.537Z,1.83
2017-12-17T00:41:22.685Z,1.81
2017-12-17T00:41:27.038Z,1.83
2017-12-17T00:41:31.232Z,1.81
2017-12-17T00:41:35.477Z,1.85
2017-12-17T00:41:39.504Z,1.79
2017-12-17T00:41:43.864Z,1.82
2017-12-17T00:41:48.332Z,1.79
2017-12-17T00:41:52.533Z,1.83
2017-12-17T00:41:56.676Z,1.85
2017-12-17T00:42:01.037Z,1.83
2017-12-17T00:42:05.173Z,1.81
2017-12-17T00:42:08.992Z,1.83
2017-12-17T00:42:13.110Z,1.82
2017-12-17T00:42:17.354Z,1.82
2017-12-17T00:42:21.602Z,1.82
2017-12-17T00:42:25.747Z,1.79
2017-12-17T00:42:30.098Z,1.81
2017-12-17T00:42:34.445Z,1.82
2017-12-17T00:42:38.676Z,1.82
2017-12-17T00:42:42.818Z,1.81
2017-12-17T00:42:47.061Z,1.82
2017-12-17T00:42:51.102Z,1.85
2017-12-17T00:42:55.116Z,1.81
2017-12-17T00:42:59.467Z,1.86
2017-12-17T00:43:03.707Z,1.83
2017-12-17T00:43:07.951Z,1.79
2017-12-17T00:43:12.085Z,1.83
2017-12-17T00:43:16.447Z,1.82
2017-12-17T00:43:20.693Z,1.79
2017-12-17T00:43:24.946Z,1.77
2017-12-17T00:43:29.304Z,1.79
2017-12-17T00:43:33.726Z,1.92
2017-12-17T00:43:38.091Z,1.85
2017-12-17T00:43:42.450Z,1.82
2017-12-17T00:43:46.796Z,1.85
2017-12-17T00:43:51.037Z,1.81
2017-12-17T00:43:55.177Z,1.82
2017-12-17T00:43:59.484Z,1.83
2017-12-17T00:44:03.827Z,1.85
2017-12-17T00:44:08.178Z,1.79
2017-12-17T00:44:12.419Z,1.81
2017-12-17T00:44:16.651Z,1.81
2017-12-17T00:44:20.896Z,1.93
2017-12-17T00:44:25.151Z,1.79
2017-12-17T00:44:29.291Z,1.82
2017-12-17T00:44:33.409Z,1.83
2017-12-17T00:44:37.655Z,1.83
2017-12-17T00:44:41.918Z,1.82
2017-12-17T00:44:46.051Z,1.95
2017-12-17T00:44:50.404Z,1.85
2017-12-17T00:44:54.748Z,1.85
2017-12-17T00:44:58.985Z,1.82
2017-12-17T00:45:03.339Z,1.82
2017-12-17T00:45:07.587Z,1.85
2017-12-17T00:45:11.624Z,1.85
2017-12-17T00:45:15.953Z,1.95
2017-12-17T00:45:20.292Z,1.95
2017-12-17T00:45:24.326Z,1.82
2017-12-17T00:45:28.346Z,1.79
2017-12-17T00:45:32.269Z,1.83
2017-12-17T00:45:36.304Z,1.83
2017-12-17T00:45:40.540Z,1.83
2017-12-17T00:45:44.879Z,1.82
2017-12-17T00:45:49.123Z,1.85
2017-12-17T00:45:53.531Z,1.85
2017-12-17T00:45:57.767Z,1.81
2017-12-17T00:46:02.129Z,1.85
2017-12-17T00:46:06.156Z,1.86
2017-12-17T00:46:10.294Z,1.93
2017-12-17T00:46:14.550Z,1.85
2017-12-17T00:46:18.670Z,1.86
2017-12-17T00:46:23.070Z,1.85
2017-12-17T00:46:27.417Z,1.82
2017-12-17T00:46:31.646Z,1.85
2017-12-17T00:46:35.588Z,1.83
2017-12-17T00:46:39.841Z,1.88
2017-12-17T00:46:44.095Z,2
2017-12-17T00:46:48.426Z,1.88
2017-12-17T00:46:52.773Z,1.83
2017-12-17T00:46:57.017Z,1.82
2017-12-17T00:47:01.243Z,1.85
2017-12-17T00:47:05.429Z,1.86
2017-12-17T00:47:09.657Z,1.81
2017-12-17T00:47:13.558Z,1.82
2017-12-17T00:47:17.803Z,1.9
2017-12-17T00:47:22.036Z,1.88
2017-12-17T00:47:26.184Z,1.82
2017-12-17T00:47:30.412Z,2
2017-12-17T00:47:34.639Z,1.86
2017-12-17T00:47:38.675Z,1.85
2017-12-17T00:47:42.809Z,1.82
2017-12-17T00:47:46.940Z,1.81
2017-12-17T00:47:51.195Z,1.85
2017-12-17T00:47:55.231Z,1.86
2017-12-17T00:47:59.475Z,1.81
2017-12-17T00:48:03.659Z,1.82
2017-12-17T00:48:07.897Z,1.83
2017-12-17T00:48:12.255Z,1.89
2017-12-17T00:48:16.493Z,1.75
2017-12-17T00:48:20.740Z,1.86
2017-12-17T00:48:24.874Z,1.85
2017-12-17T00:48:29.223Z,1.92
2017-12-17T00:48:33.469Z,1.82
2017-12-17T00:48:37.497Z,1.83
2017-12-17T00:48:41.855Z,1.92
2017-12-17T00:48:46.046Z,1.92
2017-12-17T00:48:50.280Z,1.88
2017-12-17T00:48:54.298Z,1.79
2017-12-17T00:48:58.705Z,1.89
2017-12-17T00:49:02.738Z,1.92
2017-12-17T00:49:06.873Z,1.79
2017-12-17T00:49:10.901Z,1.79
2017-12-17T00:49:15.144Z,1.82
2017-12-17T00:49:19.291Z,1.81
2017-12-17T00:49:23.308Z,1.83
2017-12-17T00:49:27.539Z,1.83
2017-12-17T00:49:31.892Z,1.85
2017-12-17T00:49:36.237Z,1.83
2017-12-17T00:49:40.600Z,1.82
2017-12-17T00:49:44.735Z,1.82
2017-12-17T00:49:49.086Z,1.82
2017-12-17T00:49:53.339Z,1.83
2017-12-17T00:49:57.476Z,1.83
2017-12-17T00:50:01.612Z,1.81
2017-12-17T00:50:05.852Z,1.92
2017-12-17T00:50:10.223Z,1.9
2017-12-17T00:50:14.364Z,1.83
2017-12-17T00:50:18.617Z,1.83
2017-12-17T00:50:22.774Z,1.82
2017-12-17T00:50:26.908Z,1.86
2017-12-17T00:50:31.035Z,1.83
2017-12-17T00:50:35.291Z,1.92
2017-12-17T00:50:39.529Z,1.93
2017-12-17T00:50:43.768Z,1.85
2017-12-17T00:50:48.001Z,1.85
2017-12-17T00:50:52.145Z,1.9
2017-12-17T00:50:56.297Z,1.83
2017-12-17T00:51:00.642Z,1.85
2017-12-17T00:51:05.015Z,1.86
2017-12-17T00:51:09.167Z,1.93
2017-12-17T00:51:13.304Z,1.83
2017-12-17T00:51:17.671Z,1.92
2017-12-17T00:51:21.831Z,1.93
2017-12-17T00:51:25.840Z,1.88
2017-12-17T00:51:29.967Z,1.9
2017-12-17T00:51:34.108Z,1.81
2017-12-17T00:51:38.468Z,1.88
2017-12-17T00:51:42.780Z,1.82
2017-12-17T00:51:47.145Z,1.93
2017-12-17T00:51:51.185Z,1.85
2017-12-17T00:51:55.430Z,1.92
2017-12-17T00:51:59.777Z,1.82
2017-12-17T00:52:04.023Z,1.85
2017-12-17T00:52:08.053Z,1.95
2017-12-17T00:52:12.184Z,1.93
2017-12-17T00:52:16.459Z,1.9
2017-12-17T00:52:21.045Z,1.83
2017-12-17T00:52:25.404Z,1.9
2017-12-17T00:52:29.757Z,1.9
2017-12-17T00:52:33.773Z,1.93
2017-12-17T00:52:37.808Z,1.82
2017-12-17T00:52:42.058Z,1.98
2017-12-17T00:52:46.287Z,1.92
2017-12-17T00:52:50.427Z,1.82
2017-12-17T00:52:54.458Z,1.92
2017-12-17T00:52:58.785Z,1.92
2017-12-17T00:53:03.063Z,1.93
2017-12-17T00:53:07.265Z,2
2017-12-17T00:53:11.300Z,1.95
2017-12-17T00:53:15.433Z,1.9
2017-12-17T00:53:19.666Z,2.01
2017-12-17T00:53:23.913Z,1.86
2017-12-17T00:53:28.153Z,2
2017-12-17T00:53:32.300Z,1.81
2017-12-17T00:53:36.430Z,1.9
2017-12-17T00:53:40.676Z,1.93
2017-12-17T00:53:45.036Z,1.93
2017-12-17T00:53:49.172Z,2
2017-12-17T00:53:53.304Z,1.95
2017-12-17T00:53:57.550Z,1.9
2017-12-17T00:54:01.800Z,1.95
2017-12-17T00:54:06.034Z,1.92
2017-12-17T00:54:10.283Z,1.89
2017-12-17T00:54:14.520Z,1.88
2017-12-17T00:54:18.561Z,1.95
2017-12-17T00:54:22.698Z,1.82
2017-12-17T00:54:27.045Z,1.93
2017-12-17T00:54:31.377Z,1.89
2017-12-17T00:54:35.621Z,1.83
2017-12-17T00:54:39.873Z,1.83
2017-12-17T00:54:44.242Z,1.83
2017-12-17T00:54:48.395Z,1.93
2017-12-17T00:54:52.769Z,1.9
2017-12-17T00:54:57.114Z,1.85
2017-12-17T00:55:01.458Z,1.85
2017-12-17T00:55:05.741Z,1.92
2017-12-17T00:55:09.983Z,1.93
2017-12-17T00:55:14.324Z,1.93
2017-12-17T00:55:18.444Z,1.98
2017-12-17T00:55:22.578Z,1.98
2017-12-17T00:55:26.732Z,1.9
2017-12-17T00:55:30.982Z,1.92
2017-12-17T00:55:35.107Z,1.9
2017-12-17T00:55:39.464Z,1.89
2017-12-17T00:55:43.816Z,1.92
2017-12-17T00:55:48.068Z,1.89
2017-12-17T00:55:52.309Z,1.9
2017-12-17T00:55:56.653Z,1.88
2017-12-17T00:56:00.883Z,1.98
2017-12-17T00:56:05.432Z,1.93
2017-12-17T00:56:09.576Z,1.89
2017-12-17T00:56:13.912Z,2
2017-12-17T00:56:18.146Z,1.98
2017-12-17T00:56:22.286Z,1.98
2017-12-17T00:56:26.202Z,1.93
2017-12-17T00:56:30.550Z,1.85
2017-12-17T00:56:34.912Z,1.93
2017-12-17T00:56:39.159Z,2.02
2017-12-17T00:56:43.298Z,1.98
2017-12-17T00:56:47.539Z,1.98
2017-12-17T00:56:51.892Z,1.89
2017-12-17T00:56:55.900Z,1.9